createdAt,value
2023-03-10T00:02:09.096Z,26.87
2023-03-10T00:04:43.261Z,28.77
2023-03-10T00:07:16.308Z,28.53
2023-03-10T00:09:51.146Z,31.57
2023-03-10T00:12:25.949Z,26.10
2023-03-10T00:14:59.332Z,28.33
2023-03-10T00:17:32.257Z,28.70
2023-03-10T00:20:08.029Z,26.90
2023-03-10T00:22:41.743Z,28.40
2023-03-10T00:25:17.611Z,25.90
2023-03-10T00:27:52.432Z,27.07
2023-03-10T00:30:25.348Z,27.93
2023-03-10T00:32:58.197Z,24.83
2023-03-10T00:35:32.365Z,27.93
2023-03-10T00:38:05.240Z,24.63
2023-03-10T00:40:38.220Z,24.87
2023-03-10T00:43:13.246Z,27.47
2023-03-10T00:45:53.572Z,22.77
2023-03-10T00:48:26.783Z,25.13
2023-03-10T00:51:04.813Z,24.57
2023-03-10T00:53:38.049Z,26.37
2023-03-10T00:56:13.813Z,29.30
2023-03-10T00:58:47.092Z,25.37
2023-03-10T01:01:20.999Z,25.90
2023-03-10T01:03:54.492Z,28.57
2023-03-10T01:06:31.616Z,28.17
2023-03-10T01:09:04.851Z,27.60
2023-03-10T01:11:38.076Z,28.93
2023-03-10T01:14:12.653Z,27.37
2023-03-10T01:16:46.313Z,26.60
2023-03-10T01:19:19.174Z,31.57
2023-03-10T01:21:53.421Z,28.90
2023-03-10T01:24:26.180Z,32.27
2023-03-10T01:26:58.931Z,29.00
2023-03-10T01:29:31.651Z,28.37
2023-03-10T01:32:04.631Z,27.53
2023-03-10T01:34:38.961Z,28.50
2023-03-10T01:37:13.832Z,29.47
2023-03-10T01:39:46.637Z,32.90
2023-03-10T01:42:19.508Z,26.57
2023-03-10T01:45:06.296Z,27.63
2023-03-10T01:47:39.011Z,28.17
2023-03-10T01:50:14.810Z,28.50
2023-03-10T01:52:52.492Z,26.47
2023-03-10T01:55:26.698Z,28.00
2023-03-10T01:57:59.683Z,23.70
2023-03-10T02:00:32.618Z,24.37
2023-03-10T02:03:10.190Z,25.47
2023-03-10T02:05:44.872Z,23.73
2023-03-10T02:08:19.388Z,28.53
2023-03-10T02:10:52.610Z,22.93
2023-03-10T02:13:25.396Z,26.20
2023-03-10T02:15:58.349Z,22.73
2023-03-10T02:18:31.696Z,24.20
2023-03-10T02:21:09.725Z,23.80
2023-03-10T02:24:00.663Z,24.80
2023-03-10T02:26:37.151Z,23.87
2023-03-10T02:29:13.192Z,25.03
2023-03-10T02:31:46.232Z,26.87
2023-03-10T02:34:19.712Z,24.03
2023-03-10T02:36:59.940Z,27.07
2023-03-10T02:39:32.740Z,28.10
2023-03-10T02:42:05.623Z,27.00
2023-03-10T02:44:40.658Z,26.97
2023-03-10T02:47:13.627Z,24.60
2023-03-10T02:49:46.566Z,26.43
2023-03-10T02:52:22.604Z,24.87
2023-03-10T02:54:55.488Z,27.53
2023-03-10T02:57:28.349Z,26.40
2023-03-10T03:00:02.682Z,21.23
2023-03-10T03:02:35.573Z,21.40
2023-03-10T03:05:09.281Z,23.50
2023-03-10T03:07:42.170Z,18.47
2023-03-10T03:10:15.068Z,18.77
2023-03-10T03:12:52.450Z,20.07
2023-03-10T03:15:26.847Z,19.43
2023-03-10T03:18:00.791Z,18.30
2023-03-10T03:20:33.994Z,19.33
2023-03-10T03:23:06.764Z,17.60
2023-03-10T03:25:43.043Z,19.50
2023-03-10T03:28:15.827Z,16.07
2023-03-10T03:30:50.078Z,20.73
2023-03-10T03:33:38.432Z,17.37
2023-03-10T03:36:14.752Z,19.40
2023-03-10T03:38:47.560Z,17.43
2023-03-10T03:41:23.182Z,18.53
2023-03-10T03:43:58.755Z,17.57
2023-03-10T03:46:32.975Z,16.43
2023-03-10T03:49:05.808Z,18.03
2023-03-10T03:51:41.234Z,14.67
2023-03-10T03:54:14.033Z,14.90
2023-03-10T03:56:46.969Z,13.60
2023-03-10T03:59:19.628Z,13.37
2023-03-10T04:01:53.847Z,12.50
2023-03-10T04:04:26.691Z,13.90
2023-03-10T04:06:59.576Z,14.20
2023-03-10T04:09:32.745Z,13.27
2023-03-10T04:12:05.750Z,13.43
2023-03-10T04:14:41.586Z,14.97
2023-03-10T04:17:16.791Z,12.33
2023-03-10T04:20:04.600Z,12.07
2023-03-10T04:22:39.380Z,10.57
2023-03-10T04:25:12.789Z,13.87
2023-03-10T04:27:45.656Z,12.27
2023-03-10T04:30:18.464Z,12.17
2023-03-10T04:32:55.071Z,13.97
2023-03-10T04:35:28.200Z,12.50
2023-03-10T04:38:00.981Z,13.63
2023-03-10T04:40:33.598Z,14.03
2023-03-10T04:43:06.368Z,13.37
2023-03-10T04:45:41.869Z,13.60
2023-03-10T04:48:16.240Z,14.13
2023-03-10T04:50:55.578Z,12.37
2023-03-10T04:53:28.684Z,13.00
2023-03-10T04:56:01.932Z,11.37
2023-03-10T04:58:35.228Z,11.30
2023-03-10T05:01:09.696Z,14.47
2023-03-10T05:03:47.983Z,12.90
2023-03-10T05:06:21.724Z,11.90
2023-03-10T05:08:56.363Z,11.13
2023-03-10T05:11:29.057Z,11.80
2023-03-10T05:14:01.984Z,11.37
2023-03-10T05:16:37.561Z,10.67
2023-03-10T05:19:11.735Z,10.60
2023-03-10T05:21:44.456Z,12.63
2023-03-10T05:24:17.380Z,10.97
2023-03-10T05:26:50.271Z,13.87
2023-03-10T05:29:23.054Z,11.83
2023-03-10T05:31:56.100Z,13.07
2023-03-10T05:34:31.502Z,11.53
2023-03-10T05:37:04.595Z,14.13
2023-03-10T05:39:39.567Z,12.90
2023-03-10T05:42:12.471Z,13.27
2023-03-10T05:44:45.278Z,13.87
2023-03-10T05:47:23.196Z,12.50
2023-03-10T05:49:57.337Z,13.53
2023-03-10T05:52:30.200Z,12.40
2023-03-10T05:55:03.642Z,15.33
2023-03-10T05:57:36.409Z,13.93
2023-03-10T06:00:10.626Z,12.73
2023-03-10T06:02:43.410Z,13.50
2023-03-10T06:05:17.654Z,12.37
2023-03-10T06:07:53.014Z,13.57
2023-03-10T06:10:25.872Z,12.20
2023-03-10T06:12:58.696Z,13.43
2023-03-10T06:15:31.771Z,12.97
2023-03-10T06:18:04.606Z,9.90
2023-03-10T06:20:41.331Z,12.30
2023-03-10T06:23:14.198Z,11.33
2023-03-10T06:25:46.962Z,11.77
2023-03-10T06:28:20.172Z,12.47
2023-03-10T06:30:56.155Z,12.83
2023-03-10T06:33:29.238Z,13.53
2023-03-10T06:36:03.602Z,15.57
2023-03-10T06:38:38.639Z,17.47
2023-03-10T06:41:11.870Z,14.60
2023-03-10T06:43:44.883Z,14.93
2023-03-10T06:46:18.037Z,13.87
2023-03-10T06:48:51.155Z,14.73
2023-03-10T06:51:25.510Z,16.17
2023-03-10T06:54:01.137Z,13.70
2023-03-10T06:56:33.923Z,15.70
2023-03-10T06:59:07.055Z,16.80
2023-03-10T07:01:40.235Z,14.73
2023-03-10T07:04:14.231Z,13.20
2023-03-10T07:06:48.434Z,13.03
2023-03-10T07:09:21.357Z,15.90
2023-03-10T07:11:54.269Z,13.43
2023-03-10T07:14:27.981Z,12.67
2023-03-10T07:17:00.864Z,11.37
2023-03-10T07:19:33.845Z,12.27
2023-03-10T07:22:10.956Z,14.63
2023-03-10T07:24:44.331Z,12.80
2023-03-10T07:27:17.276Z,11.83
2023-03-10T07:29:50.242Z,14.20
2023-03-10T07:32:23.087Z,13.93
2023-03-10T07:34:55.763Z,13.77
2023-03-10T07:37:29.870Z,12.60
2023-03-10T07:40:02.671Z,14.73
2023-03-10T07:42:35.538Z,11.53
2023-03-10T07:45:08.606Z,11.67
2023-03-10T07:47:41.380Z,12.90
2023-03-10T07:50:14.318Z,11.47
2023-03-10T07:52:48.636Z,13.00
2023-03-10T07:55:21.583Z,11.33
2023-03-10T07:57:56.755Z,18.20
2023-03-10T08:00:29.765Z,16.13
2023-03-10T08:03:02.720Z,12.23
2023-03-10T08:05:37.283Z,13.50
2023-03-10T08:08:14.545Z,12.73
2023-03-10T08:10:47.422Z,11.73
2023-03-10T08:13:20.307Z,14.37
2023-03-10T08:15:56.525Z,13.77
2023-03-10T08:18:30.319Z,15.20
2023-03-10T08:21:04.977Z,17.00
2023-03-10T08:23:41.653Z,12.10
2023-03-10T08:26:17.380Z,16.07
2023-03-10T08:28:51.032Z,13.53
2023-03-10T08:31:24.162Z,16.67
2023-03-10T08:33:57.671Z,15.50
2023-03-10T08:36:31.538Z,15.47
2023-03-10T08:39:06.601Z,15.13
2023-03-10T08:41:41.869Z,16.03
2023-03-10T08:44:17.705Z,14.80
2023-03-10T08:46:51.212Z,15.20
2023-03-10T08:49:24.102Z,16.23
2023-03-10T08:51:58.984Z,14.20
2023-03-10T08:54:33.372Z,14.50
2023-03-10T08:57:06.219Z,15.13
2023-03-10T08:59:39.030Z,16.03
2023-03-10T09:02:12.260Z,17.97
2023-03-10T09:04:45.479Z,14.70
2023-03-10T09:07:20.760Z,18.53
2023-03-10T09:09:55.007Z,14.23
2023-03-10T09:12:33.577Z,15.90
2023-03-10T09:15:08.882Z,16.87
2023-03-10T09:17:42.435Z,16.30
2023-03-10T09:20:15.890Z,14.63
2023-03-10T09:22:48.814Z,14.00
2023-03-10T09:25:23.198Z,19.00
2023-03-10T09:27:56.063Z,14.07
2023-03-10T09:30:29.018Z,14.47
2023-03-10T09:33:04.308Z,16.83
2023-03-10T09:35:41.767Z,13.20
2023-03-10T09:38:17.456Z,15.47
2023-03-10T09:40:53.193Z,12.60
2023-03-10T09:43:26.459Z,21.20
2023-03-10T09:46:04.991Z,14.67
2023-03-10T09:48:44.375Z,15.97
2023-03-10T09:51:20.813Z,15.83
2023-03-10T09:54:06.376Z,14.00
2023-03-10T09:56:40.655Z,16.80
2023-03-10T09:59:16.060Z,14.50
2023-03-10T10:01:52.606Z,14.23
2023-03-10T10:04:29.251Z,19.50
2023-03-10T10:07:03.096Z,14.87
2023-03-10T10:09:42.293Z,16.13
2023-03-10T10:12:17.644Z,14.63
2023-03-10T10:14:57.204Z,13.43
2023-03-10T10:17:41.718Z,14.67
2023-03-10T10:20:22.300Z,15.63
2023-03-10T10:22:55.504Z,15.33
2023-03-10T10:25:32.314Z,13.97
2023-03-10T10:28:16.719Z,15.43
2023-03-10T10:30:49.900Z,15.43
2023-03-10T10:33:22.720Z,15.10
2023-03-10T10:36:01.609Z,13.93
2023-03-10T10:38:35.381Z,15.17
2023-03-10T10:41:17.326Z,17.53
2023-03-10T10:43:51.731Z,18.17
2023-03-10T10:46:26.430Z,13.87
2023-03-10T10:49:03.984Z,17.20
2023-03-10T10:51:38.018Z,16.50
2023-03-10T10:54:22.728Z,16.27
2023-03-10T10:56:56.818Z,17.27
2023-03-10T10:59:32.125Z,17.53
2023-03-10T11:02:05.510Z,17.27
2023-03-10T11:04:42.746Z,14.67
2023-03-10T11:07:17.775Z,15.07
2023-03-10T11:09:50.708Z,16.07
2023-03-10T11:12:28.316Z,18.20
2023-03-10T11:15:12.511Z,17.23
2023-03-10T11:17:48.565Z,12.33
2023-03-10T11:20:29.552Z,17.53
2023-03-10T11:23:06.071Z,15.43
2023-03-10T11:25:41.840Z,13.37
2023-03-10T11:28:21.385Z,16.67
2023-03-10T11:30:59.898Z,12.47
2023-03-10T11:33:36.252Z,17.57
2023-03-10T11:36:16.074Z,12.97
2023-03-10T11:38:51.376Z,13.83
2023-03-10T11:41:25.666Z,14.87
2023-03-10T11:43:59.862Z,13.30
2023-03-10T11:46:41.251Z,15.40
2023-03-10T11:49:17.001Z,13.40
2023-03-10T11:51:51.014Z,13.23
2023-03-10T11:54:27.075Z,13.53
2023-03-10T11:57:00.578Z,11.80
2023-03-10T11:59:36.550Z,13.37
2023-03-10T12:02:15.802Z,12.93
2023-03-10T12:04:52.061Z,13.03
2023-03-10T12:07:27.965Z,11.20
2023-03-10T12:10:01.803Z,12.47
2023-03-10T12:12:36.284Z,12.83
2023-03-10T12:15:14.022Z,10.57
2023-03-10T12:17:49.416Z,10.13
2023-03-10T12:20:27.123Z,9.53
2023-03-10T12:23:00.702Z,13.03
2023-03-10T12:25:43.423Z,11.07
2023-03-10T12:28:24.474Z,10.87
2023-03-10T12:30:58.146Z,10.43
2023-03-10T12:33:48.344Z,12.23
2023-03-10T12:36:27.829Z,10.43
2023-03-10T12:39:00.972Z,9.20
2023-03-10T12:41:42.239Z,8.30
2023-03-10T12:44:33.969Z,10.73
2023-03-10T12:47:22.936Z,7.87
2023-03-10T12:49:59.129Z,7.27
2023-03-10T12:52:37.083Z,7.77
2023-03-10T12:55:21.090Z,8.63
2023-03-10T12:58:11.169Z,9.13
2023-03-10T13:00:50.867Z,7.67
2023-03-10T13:03:31.824Z,9.30
2023-03-10T13:06:08.071Z,8.10
2023-03-10T13:08:44.746Z,7.40
2023-03-10T13:11:24.353Z,7.23
2023-03-10T13:13:59.505Z,6.93
2023-03-10T13:16:32.982Z,9.27
2023-03-10T13:19:06.158Z,8.20
2023-03-10T13:21:40.768Z,9.00
2023-03-10T13:24:25.268Z,7.90
2023-03-10T13:27:06.641Z,7.67
2023-03-10T13:29:40.032Z,8.83
2023-03-10T13:32:18.891Z,9.27
2023-03-10T13:34:51.841Z,11.50
2023-03-10T13:37:26.192Z,4.63
2023-03-10T13:40:09.261Z,7.90
2023-03-10T13:42:44.479Z,7.90
2023-03-10T13:45:22.885Z,10.13
2023-03-10T13:47:55.957Z,12.10
2023-03-10T13:50:28.909Z,12.63
2023-03-10T13:53:04.538Z,12.27
2023-03-10T13:55:42.261Z,10.13
2023-03-10T13:58:15.380Z,8.93
2023-03-10T14:00:50.686Z,8.93
2023-03-10T14:03:23.692Z,10.20
2023-03-10T14:05:56.664Z,8.63
2023-03-10T14:08:32.834Z,11.87
2023-03-10T14:11:38.579Z,9.60
2023-03-10T14:14:12.154Z,10.17
2023-03-10T14:16:45.930Z,10.47
2023-03-10T14:19:37.321Z,12.67
2023-03-10T14:22:28.395Z,12.03
2023-03-10T14:25:03.325Z,8.90
2023-03-10T14:27:37.819Z,7.33
2023-03-10T14:30:25.413Z,8.47
2023-03-10T14:32:58.918Z,10.73
2023-03-10T14:35:31.756Z,9.63
2023-03-10T14:38:04.734Z,7.67
2023-03-10T14:40:40.858Z,12.27
2023-03-10T14:43:15.321Z,7.80
2023-03-10T14:45:51.550Z,10.43
2023-03-10T14:48:25.879Z,13.33
2023-03-10T14:50:58.983Z,11.03
2023-03-10T14:53:33.364Z,12.87
2023-03-10T14:56:08.322Z,11.77
2023-03-10T14:58:45.043Z,14.10
2023-03-10T15:01:19.108Z,13.47
2023-03-10T15:03:52.656Z,13.57
2023-03-10T15:06:25.826Z,11.77
2023-03-10T15:09:00.630Z,16.73
2023-03-10T15:11:37.522Z,13.87
2023-03-10T15:14:13.310Z,14.03
2023-03-10T15:16:46.405Z,14.67
2023-03-10T15:19:22.314Z,15.67
2023-03-10T15:21:55.470Z,15.33
2023-03-10T15:24:28.353Z,16.10
2023-03-10T15:27:02.473Z,15.73
2023-03-10T15:29:35.476Z,16.33
2023-03-10T15:32:08.578Z,13.77
2023-03-10T15:34:41.386Z,16.80
2023-03-10T15:37:39.893Z,16.77
2023-03-10T15:40:15.016Z,15.90
2023-03-10T15:42:49.758Z,15.87
2023-03-10T15:45:22.970Z,15.97
2023-03-10T15:47:55.807Z,17.50
2023-03-10T15:50:31.765Z,15.37
2023-03-10T15:53:04.817Z,17.60
2023-03-10T15:55:41.329Z,16.63
2023-03-10T15:58:16.884Z,16.07
2023-03-10T16:00:49.766Z,16.63
2023-03-10T16:03:22.889Z,16.23
2023-03-10T16:05:59.319Z,14.50
2023-03-10T16:08:37.343Z,17.20
2023-03-10T16:11:16.238Z,18.67
2023-03-10T16:13:51.072Z,19.47
2023-03-10T16:16:26.218Z,24.50
2023-03-10T16:18:59.067Z,19.63
2023-03-10T16:21:32.048Z,17.27
2023-03-10T16:24:04.858Z,17.60
2023-03-10T16:26:37.856Z,18.67
2023-03-10T16:29:12.234Z,19.30
2023-03-10T16:31:45.251Z,19.17
2023-03-10T16:34:18.209Z,17.90
2023-03-10T16:36:51.847Z,20.00
2023-03-10T16:39:25.827Z,15.90
2023-03-10T16:41:58.699Z,19.90
2023-03-10T16:44:32.851Z,19.53
2023-03-10T16:47:05.742Z,18.07
2023-03-10T16:49:38.572Z,20.73
2023-03-10T16:52:11.636Z,24.50
2023-03-10T16:54:45.969Z,19.53
2023-03-10T16:57:19.023Z,17.37
2023-03-10T16:59:53.200Z,19.83
2023-03-10T17:02:26.165Z,18.50
2023-03-10T17:04:59.003Z,18.93
2023-03-10T17:07:31.648Z,18.30
2023-03-10T17:10:08.008Z,21.60
2023-03-10T17:12:41.584Z,24.30
2023-03-10T17:15:18.764Z,17.00
2023-03-10T17:17:51.946Z,18.13
2023-03-10T17:20:25.979Z,20.90
2023-03-10T17:22:59.905Z,18.13
2023-03-10T17:28:10.484Z,13.40
2023-03-10T17:30:44.663Z,16.10
2023-03-10T17:33:17.600Z,16.53
2023-03-10T17:35:50.445Z,16.83
2023-03-10T17:38:23.422Z,17.17
2023-03-10T17:40:56.307Z,20.77
2023-03-10T17:43:34.133Z,22.83
2023-03-10T17:46:10.012Z,22.13
2023-03-10T17:48:43.143Z,15.33
2023-03-10T17:51:18.571Z,17.93
2023-03-10T17:53:52.090Z,13.53
2023-03-10T17:56:24.999Z,14.37
2023-03-10T17:58:58.302Z,14.97
2023-03-10T18:01:34.171Z,15.23
2023-03-10T18:04:06.950Z,13.30
2023-03-10T18:06:40.093Z,14.50
2023-03-10T18:09:13.608Z,13.13
2023-03-10T18:11:46.532Z,14.07
2023-03-10T18:14:19.487Z,13.97
2023-03-10T18:16:54.041Z,14.93
2023-03-10T18:19:26.772Z,14.37
2023-03-10T18:21:59.861Z,20.47
2023-03-10T18:24:35.632Z,14.57
2023-03-10T18:27:08.590Z,15.30
2023-03-10T18:29:45.438Z,19.07
2023-03-10T18:32:19.790Z,17.43
2023-03-10T18:34:52.629Z,21.37
2023-03-10T18:37:25.441Z,18.70
2023-03-10T18:40:01.048Z,21.87
2023-03-10T18:42:34.358Z,21.10
2023-03-10T18:45:07.819Z,22.07
2023-03-10T18:47:42.727Z,21.20
2023-03-10T18:50:15.500Z,22.50
2023-03-10T18:52:48.545Z,21.97
2023-03-10T18:55:21.727Z,19.17
2023-03-10T18:57:54.622Z,16.53
2023-03-10T19:00:27.565Z,18.70
2023-03-10T19:03:01.832Z,17.40
2023-03-10T19:05:34.795Z,17.17
2023-03-10T19:08:08.108Z,18.97
2023-03-10T19:10:40.951Z,19.23
2023-03-10T19:13:13.801Z,17.93
2023-03-10T19:15:46.630Z,17.67
2023-03-10T19:18:20.993Z,17.20
2023-03-10T19:20:59.061Z,18.70
2023-03-10T19:23:33.993Z,20.17
2023-03-10T19:26:06.989Z,18.03
2023-03-10T19:28:39.890Z,20.10
2023-03-10T19:31:13.581Z,20.30
2023-03-10T19:33:47.803Z,21.27
2023-03-10T19:36:24.046Z,25.17
2023-03-10T19:38:57.070Z,20.33
2023-03-10T19:41:29.851Z,20.07
2023-03-10T19:44:07.361Z,20.97
2023-03-10T19:46:40.453Z,22.47
2023-03-10T19:49:14.678Z,23.80
2023-03-10T19:51:47.388Z,25.13
2023-03-10T19:54:20.330Z,26.27
2023-03-10T19:56:53.725Z,26.80
2023-03-10T19:59:32.810Z,27.03
2023-03-10T20:02:05.843Z,28.17
2023-03-10T20:04:40.321Z,24.07
2023-03-10T20:07:13.331Z,22.50
2023-03-10T20:09:48.015Z,25.03
2023-03-10T20:12:23.761Z,24.93
2023-03-10T20:15:00.264Z,25.73
2023-03-10T20:17:33.207Z,26.53
2023-03-10T20:20:10.492Z,24.07
2023-03-10T20:22:45.285Z,24.97
2023-03-10T20:25:19.303Z,29.07
2023-03-10T20:27:52.897Z,27.07
2023-03-10T20:30:27.726Z,27.37
2023-03-10T20:33:01.094Z,26.23
2023-03-10T20:35:36.350Z,24.80
2023-03-10T20:38:09.192Z,25.37
2023-03-10T20:40:41.998Z,26.10
2023-03-10T20:43:14.924Z,26.80
2023-03-10T20:48:34.686Z,22.70
2023-03-10T20:51:08.954Z,25.70
2023-03-10T20:53:41.861Z,23.57
2023-03-10T20:56:16.545Z,24.60
2023-03-10T20:58:49.275Z,23.87
2023-03-10T21:01:22.375Z,25.00
2023-03-10T21:03:55.519Z,24.40
2023-03-10T21:06:31.144Z,23.00
2023-03-10T21:09:05.994Z,24.93
2023-03-10T21:11:40.480Z,23.00
2023-03-10T21:14:13.269Z,25.77
2023-03-10T21:16:48.090Z,20.70
2023-03-10T21:19:23.201Z,23.63
2023-03-10T21:21:57.442Z,21.87
2023-03-10T21:24:30.310Z,21.07
2023-03-10T21:27:03.389Z,19.17
2023-03-10T21:29:36.718Z,23.67
2023-03-10T21:32:09.559Z,20.43
2023-03-10T21:34:42.263Z,20.63
2023-03-10T21:37:16.700Z,22.37
2023-03-10T21:39:49.692Z,20.37
2023-03-10T21:42:22.780Z,23.23
2023-03-10T21:44:55.943Z,22.03
2023-03-10T21:47:28.742Z,19.33
2023-03-10T21:50:02.050Z,18.53
2023-03-10T21:52:36.536Z,17.30
2023-03-10T21:55:11.465Z,21.13
2023-03-10T21:57:44.813Z,19.07
2023-03-10T22:00:19.816Z,18.93
2023-03-10T22:02:53.306Z,22.03
2023-03-10T22:05:26.173Z,19.63
2023-03-10T22:08:01.913Z,20.57
2023-03-10T22:10:34.745Z,20.30
2023-03-10T22:13:07.957Z,19.83
2023-03-10T22:15:43.102Z,19.97
2023-03-10T22:18:16.092Z,19.00
2023-03-10T22:20:48.903Z,23.20
2023-03-10T22:23:23.335Z,23.80
2023-03-10T22:25:56.539Z,23.30
2023-03-10T22:28:29.541Z,20.00
2023-03-10T22:31:02.853Z,23.27
2023-03-10T22:33:35.885Z,24.60
2023-03-10T22:36:10.487Z,26.93
2023-03-10T22:38:44.859Z,23.50
2023-03-10T22:41:17.752Z,28.67
2023-03-10T22:43:52.237Z,25.57
2023-03-10T22:46:25.311Z,26.40
2023-03-10T22:48:58.310Z,22.70
2023-03-10T22:51:31.296Z,24.83
2023-03-10T22:54:05.535Z,28.40
2023-03-10T22:56:38.846Z,25.80
2023-03-10T22:59:12.770Z,28.17
2023-03-10T23:01:45.785Z,26.20
2023-03-10T23:04:18.661Z,23.33
2023-03-10T23:06:51.475Z,23.93
2023-03-10T23:09:25.709Z,25.53
2023-03-10T23:12:01.565Z,21.20
2023-03-10T23:14:34.348Z,23.13
2023-03-10T23:17:09.378Z,21.83
2023-03-10T23:19:42.351Z,20.83
2023-03-10T23:22:15.541Z,19.90
2023-03-10T23:24:50.075Z,19.43
2023-03-10T23:27:22.867Z,20.43
2023-03-10T23:29:55.832Z,18.30
2023-03-10T23:32:30.696Z,18.07
2023-03-10T23:35:05.912Z,19.50
2023-03-10T23:37:38.615Z,18.93
2023-03-10T23:40:15.963Z,17.93
2023-03-10T23:42:49.081Z,18.00
2023-03-10T23:45:22.988Z,19.07
2023-03-10T23:47:56.563Z,17.13
2023-03-10T23:50:30.517Z,17.67
2023-03-10T23:53:06.343Z,18.00
2023-03-10T23:55:44.402Z,18.13
2023-03-10T23:58:17.907Z,17.40
